createdAt,value
2019-01-11T00:01:46.097Z,87.63
2019-01-11T00:04:14.899Z,88.36
2019-01-11T00:06:43.682Z,87.65
2019-01-11T00:09:12.519Z,88.35
2019-01-11T00:11:41.331Z,87.65
2019-01-11T00:14:10.129Z,88.25
2019-01-11T00:16:39.086Z,87.77
2019-01-11T00:19:07.902Z,87.90
2019-01-11T00:21:36.789Z,88.33
2019-01-11T00:24:06.220Z,88.15
2019-01-11T00:26:35.795Z,87.87
2019-01-11T00:29:04.659Z,88.43
2019-01-11T00:31:33.455Z,87.70
2019-01-11T00:34:02.292Z,87.76
2019-01-11T00:36:31.252Z,88.04
2019-01-11T00:39:00.484Z,88.49
2019-01-11T00:41:29.337Z,88.17
2019-01-11T00:43:58.187Z,88.62
2019-01-11T00:46:26.970Z,88.49
2019-01-11T00:48:55.777Z,88.61
2019-01-11T00:51:24.607Z,87.95
2019-01-11T00:53:53.391Z,87.94
2019-01-11T00:56:22.272Z,88.08
2019-01-11T00:58:51.175Z,88.57
2019-01-11T01:01:19.994Z,88.37
2019-01-11T01:03:49.663Z,88.33
2019-01-11T01:06:18.508Z,88.16
2019-01-11T01:08:47.376Z,88.37
2019-01-11T01:11:16.188Z,88.16
2019-01-11T01:13:44.970Z,88.47
2019-01-11T01:16:13.763Z,88.55
2019-01-11T01:18:43.409Z,88.44
2019-01-11T01:21:12.198Z,88.37
2019-01-11T01:23:41.002Z,89.09
2019-01-11T01:26:09.790Z,89.06
2019-01-11T01:28:38.607Z,88.25
2019-01-11T01:31:07.427Z,89.10
2019-01-11T01:33:36.247Z,89.21
2019-01-11T01:36:05.043Z,88.70
2019-01-11T01:38:33.830Z,88.71
2019-01-11T01:41:02.620Z,89.18
2019-01-11T01:43:32.075Z,89.26
2019-01-11T01:46:00.872Z,88.58
2019-01-11T01:48:29.659Z,89.20
2019-01-11T01:50:58.439Z,88.83
2019-01-11T01:53:27.943Z,88.79
2019-01-11T01:55:57.544Z,88.98
2019-01-11T01:58:26.989Z,89.38
2019-01-11T02:00:55.762Z,89.01
2019-01-11T02:03:24.551Z,89.59
2019-01-11T02:05:54.843Z,89.48
2019-01-11T02:08:23.635Z,89.37
2019-01-11T02:10:52.453Z,89.79
2019-01-11T02:13:21.275Z,89.02
2019-01-11T02:15:50.066Z,88.91
2019-01-11T02:18:19.480Z,89.12
2019-01-11T02:20:48.280Z,89.12
2019-01-11T02:23:17.128Z,89.68
2019-01-11T02:25:46.245Z,89.26
2019-01-11T02:28:14.710Z,89.55
2019-01-11T02:30:43.578Z,89.21
2019-01-11T02:33:12.374Z,89.32
2019-01-11T02:35:42.056Z,89.79
2019-01-11T02:38:10.843Z,89.48
2019-01-11T02:40:39.618Z,89.58
2019-01-11T02:43:08.486Z,90.23
2019-01-11T02:45:37.276Z,89.60
2019-01-11T02:48:06.091Z,89.37
2019-01-11T02:50:34.921Z,89.22
2019-01-11T02:53:03.715Z,89.92
2019-01-11T02:55:32.672Z,89.46
2019-01-11T02:58:01.450Z,89.73
2019-01-11T03:00:30.255Z,89.37
2019-01-11T03:02:59.103Z,89.22
2019-01-11T03:05:27.900Z,90.16
2019-01-11T03:07:58.070Z,89.84
2019-01-11T03:10:26.852Z,89.60
2019-01-11T03:12:55.719Z,89.98
2019-01-11T03:15:24.694Z,89.80
2019-01-11T03:17:53.499Z,89.37
2019-01-11T03:20:22.430Z,89.92
2019-01-11T03:22:51.225Z,90.12
2019-01-11T03:25:20.003Z,90.08
2019-01-11T03:27:48.882Z,89.37
2019-01-11T03:30:19.536Z,89.63
2019-01-11T03:32:48.364Z,89.90
2019-01-11T03:35:21.173Z,89.73
2019-01-11T03:37:50.937Z,90.31
2019-01-11T03:40:23.078Z,90.10
2019-01-11T03:42:51.884Z,90.15
2019-01-11T03:45:22.042Z,90.81
2019-01-11T03:47:51.386Z,90.18
2019-01-11T03:50:20.258Z,90.37
2019-01-11T03:52:49.029Z,90.52
2019-01-11T03:55:18.063Z,90.61
2019-01-11T03:57:48.631Z,90.48
2019-01-11T04:00:21.842Z,90.97
2019-01-11T04:02:50.651Z,90.83
2019-01-11T04:05:19.463Z,90.63
2019-01-11T04:07:48.357Z,90.58
2019-01-11T04:10:19.081Z,90.70
2019-01-11T04:12:47.863Z,91.47
2019-01-11T04:15:17.177Z,91.39
2019-01-11T04:17:46.591Z,91.43
2019-01-11T04:20:17.217Z,91.05
2019-01-11T04:22:50.196Z,91.06
2019-01-11T04:25:24.674Z,90.99
2019-01-11T04:27:53.521Z,91.84
2019-01-11T04:30:22.626Z,91.93
2019-01-11T04:32:52.372Z,92.44
2019-01-11T04:35:21.176Z,92.91
2019-01-11T04:37:49.988Z,92.75
2019-01-11T04:40:19.058Z,92.76
2019-01-11T04:42:47.843Z,92.07
2019-01-11T04:45:16.658Z,92.20
2019-01-11T04:47:45.502Z,92.21
2019-01-11T04:50:17.311Z,91.84
2019-01-11T04:52:46.330Z,91.73
2019-01-11T04:55:15.058Z,91.27
2019-01-11T04:57:43.931Z,91.59
2019-01-11T05:00:15.859Z,91.40
2019-01-11T05:02:44.714Z,91.61
2019-01-11T05:05:13.531Z,92.18
2019-01-11T05:07:42.322Z,91.13
2019-01-11T05:10:12.023Z,91.42
2019-01-11T05:12:40.973Z,91.14
2019-01-11T05:15:09.771Z,91.32
2019-01-11T05:17:38.621Z,91.50
2019-01-11T05:20:16.418Z,91.22
2019-01-11T05:22:39.219Z,91.21
2019-01-11T05:25:08.333Z,91.13
2019-01-11T05:27:37.190Z,91.35
2019-01-11T05:30:09.217Z,91.69
2019-01-11T05:32:38.032Z,91.21
2019-01-11T05:35:07.143Z,91.76
2019-01-11T05:37:35.935Z,91.92
2019-01-11T05:40:06.911Z,91.32
2019-01-11T05:42:35.999Z,91.63
2019-01-11T05:45:04.972Z,91.28
2019-01-11T05:47:33.753Z,91.96
2019-01-11T05:50:02.587Z,91.94
2019-01-11T05:52:31.376Z,91.40
2019-01-11T05:55:00.271Z,91.64
2019-01-11T05:57:29.133Z,92.09
2019-01-11T05:59:57.934Z,91.76
2019-01-11T06:02:26.746Z,91.07
2019-01-11T06:04:59.797Z,91.87
2019-01-11T06:07:49.730Z,91.54
2019-01-11T06:10:18.546Z,91.22
2019-01-11T06:12:47.348Z,91.11
2019-01-11T06:15:16.186Z,91.46
2019-01-11T06:17:46.034Z,90.85
2019-01-11T06:20:15.959Z,91.53
2019-01-11T06:22:44.860Z,91.08
2019-01-11T06:25:13.697Z,91.33
2019-01-11T06:27:42.470Z,91.10
2019-01-11T06:30:12.771Z,91.68
2019-01-11T06:32:42.219Z,91.83
2019-01-11T06:35:11.002Z,91.10
2019-01-11T06:37:39.830Z,91.65
2019-01-11T06:40:08.903Z,91.77
2019-01-11T06:42:37.836Z,91.07
2019-01-11T06:45:08.048Z,91.66
2019-01-11T06:47:36.921Z,91.59
2019-01-11T06:50:08.827Z,91.49
2019-01-11T06:52:38.091Z,91.90
2019-01-11T06:55:06.919Z,92.14
2019-01-11T06:57:35.715Z,92.24
2019-01-11T07:00:07.942Z,92.38
2019-01-11T07:02:37.655Z,92.40
2019-01-11T07:05:07.675Z,91.93
2019-01-11T07:07:36.994Z,92.47
2019-01-11T07:10:09.155Z,91.81
2019-01-11T07:12:37.973Z,92.15
2019-01-11T07:15:07.515Z,91.55
2019-01-11T07:17:36.335Z,91.30
2019-01-11T07:20:05.982Z,91.91
2019-01-11T07:22:34.699Z,91.84
2019-01-11T07:25:03.586Z,91.66
2019-01-11T07:27:36.305Z,92.52
2019-01-11T07:30:05.587Z,92.69
2019-01-11T07:32:34.393Z,92.63
2019-01-11T07:35:03.250Z,92.41
2019-01-11T07:37:32.194Z,92.74
2019-01-11T07:40:01.071Z,92.47
2019-01-11T07:42:29.872Z,92.14
2019-01-11T07:44:58.676Z,92.96
2019-01-11T07:47:27.502Z,92.20
2019-01-11T07:49:56.440Z,92.60
2019-01-11T07:52:25.229Z,93.02
2019-01-11T07:54:53.979Z,93.15
2019-01-11T07:57:22.778Z,92.77
2019-01-11T07:59:51.679Z,92.70
2019-01-11T08:02:20.480Z,93.25
2019-01-11T08:04:49.349Z,94.03
2019-01-11T08:07:18.288Z,93.94
2019-01-11T08:09:47.119Z,94.01
2019-01-11T08:12:16.064Z,93.72
2019-01-11T08:14:44.839Z,94.04
2019-01-11T08:17:13.722Z,94.21
2019-01-11T08:19:42.512Z,94.40
2019-01-11T08:22:15.617Z,94.31
2019-01-11T08:24:48.275Z,94.60
2019-01-11T08:27:17.124Z,94.10
2019-01-11T08:29:45.950Z,93.91
2019-01-11T08:32:14.797Z,94.35
2019-01-11T08:34:43.643Z,93.99
2019-01-11T08:37:12.511Z,94.18
2019-01-11T08:39:41.406Z,94.18
2019-01-11T08:42:10.207Z,94.54
2019-01-11T08:44:39.068Z,93.69
2019-01-11T08:47:07.912Z,93.55
2019-01-11T08:49:36.761Z,93.78
2019-01-11T08:52:05.565Z,93.42
2019-01-11T08:54:34.367Z,93.53
2019-01-11T08:57:03.235Z,93.78
2019-01-11T08:59:32.169Z,93.61
2019-01-11T09:02:00.964Z,93.58
2019-01-11T09:04:29.756Z,93.81
2019-01-11T09:06:58.649Z,93.53
2019-01-11T09:09:27.501Z,93.90
2019-01-11T09:11:56.407Z,93.41
2019-01-11T09:14:33.339Z,93.27
2019-01-11T09:17:02.157Z,93.61
2019-01-11T09:19:31.018Z,93.55
2019-01-11T09:21:59.807Z,92.79
2019-01-11T09:24:28.619Z,92.97
2019-01-11T09:26:57.383Z,92.97
2019-01-11T09:29:26.212Z,93.12
2019-01-11T09:31:55.067Z,93.11
2019-01-11T09:34:23.874Z,93.19
2019-01-11T09:36:52.661Z,93.03
2019-01-11T09:39:21.455Z,92.72
2019-01-11T09:41:50.240Z,93.03
2019-01-11T09:44:19.112Z,92.62
2019-01-11T09:46:47.919Z,93.21
2019-01-11T09:49:16.781Z,93.06
2019-01-11T09:51:45.663Z,92.81
2019-01-11T09:54:14.629Z,92.95
2019-01-11T09:56:43.643Z,93.21
2019-01-11T09:59:12.563Z,93.01
2019-01-11T10:01:41.352Z,92.64
2019-01-11T10:04:12.158Z,92.96
2019-01-11T10:06:45.191Z,92.80
2019-01-11T10:09:13.982Z,92.87
2019-01-11T10:11:42.864Z,92.61
2019-01-11T10:14:11.750Z,92.41
2019-01-11T10:16:40.559Z,92.36
2019-01-11T10:19:09.407Z,92.76
2019-01-11T10:21:38.235Z,92.83
2019-01-11T10:24:07.017Z,92.63
2019-01-11T10:26:35.875Z,92.41
2019-01-11T10:29:04.704Z,92.59
2019-01-11T10:31:33.483Z,92.00
2019-01-11T10:34:02.338Z,92.18
2019-01-11T10:36:31.734Z,92.23
2019-01-11T10:39:00.515Z,91.81
2019-01-11T10:41:29.305Z,92.05
2019-01-11T10:43:58.130Z,91.81
2019-01-11T10:46:32.433Z,92.10
2019-01-11T10:49:01.199Z,91.61
2019-01-11T10:51:30.087Z,91.71
2019-01-11T10:53:58.835Z,92.18
2019-01-11T10:56:27.658Z,92.20
2019-01-11T10:58:56.512Z,91.86
2019-01-11T11:01:25.408Z,91.87
2019-01-11T11:03:54.280Z,91.78
2019-01-11T11:06:23.166Z,91.60
2019-01-11T11:08:51.958Z,91.67
2019-01-11T11:11:20.755Z,91.47
2019-01-11T11:13:50.344Z,91.67
2019-01-11T11:16:19.145Z,91.23
2019-01-11T11:18:47.940Z,91.38
2019-01-11T11:21:16.791Z,91.56
2019-01-11T11:23:45.654Z,91.53
2019-01-11T11:26:14.467Z,91.51
2019-01-11T11:28:43.353Z,91.48
2019-01-11T11:31:12.151Z,91.31
2019-01-11T11:33:43.991Z,91.29
2019-01-11T11:36:12.925Z,91.27
2019-01-11T11:38:41.711Z,91.16
2019-01-11T11:41:10.508Z,90.87
2019-01-11T11:43:39.384Z,91.07
2019-01-11T11:46:08.206Z,90.86
2019-01-11T11:48:36.988Z,90.71
2019-01-11T11:51:05.853Z,90.60
2019-01-11T11:53:34.690Z,90.52
2019-01-11T11:56:03.508Z,90.91
2019-01-11T11:58:39.970Z,89.81
2019-01-11T12:01:08.791Z,89.98
2019-01-11T12:03:37.670Z,89.52
2019-01-11T12:06:06.475Z,89.63
2019-01-11T12:08:35.328Z,89.78
2019-01-11T12:11:04.128Z,89.86
2019-01-11T12:13:34.602Z,89.65
2019-01-11T12:16:01.777Z,89.17
2019-01-11T12:18:30.688Z,89.40
2019-01-11T12:20:59.474Z,89.60
2019-01-11T12:23:28.312Z,89.50
2019-01-11T12:25:57.170Z,89.20
2019-01-11T12:28:25.987Z,89.36
2019-01-11T12:30:54.767Z,89.20
2019-01-11T12:33:23.626Z,89.26
2019-01-11T12:35:52.476Z,88.98
2019-01-11T12:38:21.297Z,88.97
2019-01-11T12:40:50.128Z,89.47
2019-01-11T12:43:18.992Z,89.45
2019-01-11T12:45:47.922Z,89.48
2019-01-11T12:48:16.703Z,89.54
2019-01-11T12:50:45.564Z,89.59
2019-01-11T12:53:27.967Z,89.20
2019-01-11T12:55:56.743Z,89.33
2019-01-11T12:58:25.591Z,89.27
2019-01-11T13:00:54.395Z,89.41
2019-01-11T13:03:23.244Z,89.75
2019-01-11T13:05:52.038Z,89.36
2019-01-11T13:08:20.904Z,89.29
2019-01-11T13:10:50.434Z,89.38
2019-01-11T13:13:19.233Z,89.33
2019-01-11T13:15:48.059Z,89.56
2019-01-11T13:18:16.827Z,89.45
2019-01-11T13:20:45.629Z,89.54
2019-01-11T13:23:14.455Z,89.14
2019-01-11T13:25:43.239Z,88.96
2019-01-11T13:28:12.082Z,89.10
2019-01-11T13:30:40.867Z,88.97
2019-01-11T13:33:09.639Z,89.20
2019-01-11T13:35:38.496Z,89.14
2019-01-11T13:38:07.311Z,89.46
2019-01-11T13:40:36.698Z,89.76
2019-01-11T13:43:05.487Z,89.69
2019-01-11T13:45:34.327Z,89.96
2019-01-11T13:48:03.641Z,90.12
2019-01-11T13:50:36.372Z,90.03
2019-01-11T13:53:06.503Z,90.25
2019-01-11T13:55:35.284Z,90.38
2019-01-11T13:58:04.103Z,90.15
2019-01-11T14:00:32.935Z,90.65
2019-01-11T14:03:01.786Z,90.51
2019-01-11T14:05:30.667Z,90.42
2019-01-11T14:07:59.609Z,90.94
2019-01-11T14:10:28.962Z,90.45
2019-01-11T14:12:57.943Z,90.91
2019-01-11T14:15:26.984Z,90.52
2019-01-11T14:17:55.730Z,90.80
2019-01-11T14:20:24.616Z,90.81
2019-01-11T14:22:53.395Z,90.43
2019-01-11T14:25:22.234Z,90.51
2019-01-11T14:27:51.126Z,90.36
2019-01-11T14:30:19.938Z,90.20
2019-01-11T14:32:48.944Z,90.18
2019-01-11T14:35:18.307Z,90.43
2019-01-11T14:37:47.184Z,90.26
2019-01-11T14:40:16.083Z,90.41
2019-01-11T14:42:44.887Z,90.71
2019-01-11T14:45:14.923Z,90.44
2019-01-11T14:47:43.739Z,90.62
2019-01-11T14:50:14.758Z,90.63
2019-01-11T14:52:43.607Z,90.66
2019-01-11T14:55:12.401Z,90.47
2019-01-11T14:57:41.180Z,90.49
2019-01-11T15:00:13.892Z,90.31
2019-01-11T15:02:42.715Z,90.53
2019-01-11T15:05:12.281Z,90.22
2019-01-11T15:07:41.189Z,90.22
2019-01-11T15:10:11.413Z,90.60
2019-01-11T15:12:40.272Z,90.82
2019-01-11T15:15:09.174Z,90.75
2019-01-11T15:17:37.933Z,90.46
2019-01-11T15:20:09.032Z,90.77
2019-01-11T15:22:37.849Z,90.91
2019-01-11T15:25:07.647Z,90.81
2019-01-11T15:27:36.541Z,90.99
2019-01-11T15:30:06.660Z,90.77
2019-01-11T15:32:35.449Z,91.33
2019-01-11T15:35:04.819Z,90.96
2019-01-11T15:37:33.598Z,90.91
2019-01-11T15:40:02.428Z,91.48
2019-01-11T15:42:31.335Z,91.47
2019-01-11T15:45:00.220Z,91.03
2019-01-11T15:47:29.025Z,91.29
2019-01-11T15:49:57.804Z,91.07
2019-01-11T15:52:33.115Z,91.71
2019-01-11T15:54:55.600Z,91.34
2019-01-11T15:57:28.530Z,90.99
2019-01-11T16:00:00.372Z,90.88
2019-01-11T16:02:29.175Z,91.23
2019-01-11T16:05:00.231Z,91.11
2019-01-11T16:07:29.714Z,90.76
2019-01-11T16:10:03.342Z,91.22
2019-01-11T16:12:35.566Z,90.53
2019-01-11T16:17:18.887Z,90.84
2019-01-11T16:19:47.665Z,91.28
2019-01-11T16:22:16.459Z,91.05
2019-01-11T16:24:45.247Z,91.46
2019-01-11T16:27:14.086Z,91.46
2019-01-11T16:29:42.904Z,91.70
2019-01-11T16:32:11.716Z,91.96
2019-01-11T16:34:40.660Z,91.87
2019-01-11T16:37:09.455Z,91.82
2019-01-11T16:39:38.235Z,92.25
2019-01-11T16:42:07.054Z,91.99
2019-01-11T16:44:36.642Z,91.61
2019-01-11T16:47:05.543Z,92.09
2019-01-11T16:49:34.318Z,91.75
2019-01-11T16:52:03.110Z,91.67
2019-01-11T16:54:31.966Z,92.40
2019-01-11T16:59:34.375Z,92.37
2019-01-11T17:02:03.159Z,92.27
2019-01-11T17:04:31.940Z,92.38
2019-01-11T17:07:00.743Z,92.49
2019-01-11T17:09:29.528Z,92.57
2019-01-11T17:11:58.317Z,92.48
2019-01-11T17:14:27.118Z,92.83
2019-01-11T17:16:55.971Z,92.48
2019-01-11T17:19:24.787Z,92.62
2019-01-11T17:21:53.618Z,92.32
2019-01-11T17:24:22.483Z,92.37
2019-01-11T17:26:51.255Z,92.22
2019-01-11T17:29:20.165Z,92.23
2019-01-11T17:31:48.960Z,92.13
2019-01-11T17:34:17.755Z,92.64
2019-01-11T17:36:46.556Z,92.40
2019-01-11T17:39:15.338Z,92.71
2019-01-11T17:41:44.129Z,92.66
2019-01-11T17:44:12.998Z,92.27
2019-01-11T17:46:41.761Z,92.42
2019-01-11T17:49:10.572Z,92.61
2019-01-11T17:51:39.399Z,92.45
2019-01-11T17:54:08.183Z,92.33
2019-01-11T17:56:36.976Z,92.23
2019-01-11T17:59:05.761Z,92.25
2019-01-11T18:01:34.636Z,92.13
2019-01-11T18:04:04.143Z,92.29
2019-01-11T18:06:32.946Z,92.22
2019-01-11T18:09:01.807Z,92.42
2019-01-11T18:11:30.643Z,92.21
2019-01-11T18:13:59.530Z,92.06
2019-01-11T18:16:28.368Z,92.18
2019-01-11T18:18:57.145Z,92.19
2019-01-11T18:21:25.927Z,91.85
2019-01-11T18:23:54.762Z,92.09
2019-01-11T18:26:23.870Z,91.96
2019-01-11T18:28:52.667Z,92.17
2019-01-11T18:31:21.543Z,92.12
2019-01-11T18:33:50.643Z,92.12
2019-01-11T18:36:19.475Z,92.27
2019-01-11T18:38:48.324Z,91.90
2019-01-11T18:41:17.159Z,92.14
2019-01-11T18:43:46.266Z,92.04
2019-01-11T18:46:15.095Z,91.94
2019-01-11T18:48:43.997Z,92.04
2019-01-11T18:51:12.775Z,92.35
2019-01-11T18:53:41.721Z,92.15
2019-01-11T18:56:10.607Z,92.43
2019-01-11T18:58:39.446Z,92.14
2019-01-11T19:01:08.227Z,92.38
2019-01-11T19:03:37.065Z,92.20
2019-01-11T19:06:05.831Z,92.42
2019-01-11T19:08:34.686Z,92.34
2019-01-11T19:11:03.492Z,92.12
2019-01-11T19:13:32.250Z,92.58
2019-01-11T19:16:01.104Z,92.35
2019-01-11T19:18:29.953Z,91.98
2019-01-11T19:20:59.311Z,92.50
2019-01-11T19:23:28.118Z,92.61
2019-01-11T19:25:56.900Z,92.63
2019-01-11T19:28:25.776Z,92.70
2019-01-11T19:30:54.589Z,92.51
2019-01-11T19:33:23.487Z,92.73
2019-01-11T19:35:52.425Z,92.23
2019-01-11T19:38:22.355Z,92.24
2019-01-11T19:40:50.591Z,92.07
2019-01-11T19:43:19.441Z,92.05
2019-01-11T19:45:48.346Z,92.33
2019-01-11T19:48:17.236Z,92.45
2019-01-11T19:50:46.853Z,92.32
2019-01-11T19:53:15.803Z,91.94
2019-01-11T19:55:44.719Z,92.19
2019-01-11T19:58:13.542Z,91.93
2019-01-11T20:00:42.382Z,92.12
2019-01-11T20:03:11.147Z,91.32
2019-01-11T20:05:39.969Z,92.02
2019-01-11T20:08:09.670Z,92.32
2019-01-11T20:10:37.752Z,91.49
2019-01-11T20:13:06.545Z,91.61
2019-01-11T20:15:35.407Z,91.27
2019-01-11T20:18:04.353Z,91.21
2019-01-11T20:20:33.160Z,91.59
2019-01-11T20:23:02.800Z,91.58
2019-01-11T20:25:30.946Z,91.60
2019-01-11T20:27:59.792Z,91.50
2019-01-11T20:30:28.792Z,91.29
2019-01-11T20:32:57.664Z,90.95
2019-01-11T20:35:26.452Z,90.97
2019-01-11T20:37:55.278Z,90.59
2019-01-11T20:40:24.120Z,90.89
2019-01-11T20:42:53.002Z,90.64
2019-01-11T20:45:21.911Z,90.65
2019-01-11T20:47:50.704Z,90.92
2019-01-11T20:50:22.511Z,90.92
2019-01-11T20:52:51.329Z,90.76
2019-01-11T20:55:20.111Z,91.25
2019-01-11T20:57:48.944Z,90.74
2019-01-11T21:00:21.526Z,90.86
2019-01-11T21:02:50.382Z,90.85
2019-01-11T21:05:19.157Z,90.96
2019-01-11T21:07:48.028Z,91.06
2019-01-11T21:10:16.832Z,91.05
2019-01-11T21:12:45.683Z,91.13
2019-01-11T21:15:14.874Z,91.00
2019-01-11T21:17:43.687Z,91.22
2019-01-11T21:20:13.875Z,91.03
2019-01-11T21:22:42.757Z,91.10
2019-01-11T21:25:12.377Z,91.48
2019-01-11T21:27:41.181Z,91.44
2019-01-11T21:30:14.880Z,91.36
2019-01-11T21:32:43.661Z,91.41
2019-01-11T21:35:12.472Z,91.28
2019-01-11T21:37:41.230Z,91.66
2019-01-11T21:40:11.906Z,91.04
2019-01-11T21:42:40.723Z,91.41
2019-01-11T21:45:09.616Z,90.98
2019-01-11T21:47:38.359Z,91.08
2019-01-11T21:50:10.804Z,91.19
2019-01-11T21:52:39.581Z,90.99
2019-01-11T21:55:10.124Z,90.82
2019-01-11T21:57:38.978Z,91.26
2019-01-11T22:00:12.233Z,91.14
2019-01-11T22:02:41.065Z,91.49
2019-01-11T22:05:09.959Z,90.93
2019-01-11T22:07:38.745Z,90.99
2019-01-11T22:10:09.400Z,91.66
2019-01-11T22:12:38.187Z,91.26
2019-01-11T22:15:08.132Z,91.40
2019-01-11T22:17:36.908Z,91.73
2019-01-11T22:20:07.932Z,91.11
2019-01-11T22:22:36.754Z,91.72
2019-01-11T22:25:06.428Z,91.21
2019-01-11T22:27:35.216Z,91.37
2019-01-11T22:30:05.221Z,91.40
2019-01-11T22:32:34.003Z,91.54
2019-01-11T22:35:02.804Z,91.11
2019-01-11T22:37:31.647Z,91.34
2019-01-11T22:40:00.572Z,91.18
2019-01-11T22:42:29.248Z,91.12
2019-01-11T22:44:58.035Z,91.15
2019-01-11T22:47:26.899Z,92.04
2019-01-11T22:49:55.756Z,91.81
2019-01-11T22:52:24.705Z,91.55
2019-01-11T22:54:53.507Z,91.95
2019-01-11T22:57:22.340Z,92.04
2019-01-11T22:59:51.212Z,91.61
2019-01-11T23:02:33.291Z,91.85
2019-01-11T23:05:02.163Z,91.42
2019-01-11T23:07:40.484Z,91.57
2019-01-11T23:12:28.654Z,91.37
2019-01-11T23:14:57.478Z,91.19
2019-01-11T23:17:58.995Z,91.57
2019-01-11T23:20:27.814Z,91.94
2019-01-11T23:22:56.756Z,92.00
2019-01-11T23:25:25.523Z,91.83
2019-01-11T23:27:54.454Z,92.09
2019-01-11T23:30:23.306Z,91.73
2019-01-11T23:32:52.119Z,91.98
2019-01-11T23:35:20.942Z,91.78
2019-01-11T23:37:49.710Z,91.87
2019-01-11T23:40:18.588Z,91.51
2019-01-11T23:42:47.412Z,91.69
2019-01-11T23:45:16.254Z,92.13
2019-01-11T23:47:45.138Z,91.99
2019-01-11T23:50:16.115Z,91.72
2019-01-11T23:52:44.931Z,91.78
2019-01-11T23:55:13.745Z,92.23
2019-01-11T23:57:42.523Z,92.04
